Time;durP1;ratioP1;P1;durP2;ratioP2;P2;SDS_P1;SDS_P2;PMS_P1;PMS_P2;Temp;Humidity;BMP_temperature;BMP_pressure;BME280_temperature;BME280_humidity;BME280_pressure;Samples;Min_cycle;Max_cycle;Signal;HPM_P1;HPM_P2
2023/12/28 00:00:34;;;;;;;22.13;13.13;;;;;;;2.07;83.40;100782.53;4993792;28;20746;-58
2023/12/28 00:03:02;;;;;;;22.10;13.37;;;;;;;2.07;83.64;100778.31;4990813;28;20218;-58
2023/12/28 00:05:31;;;;;;;30.90;13.37;;;;;;;2.06;83.31;100771.53;4993741;28;20250;-59
2023/12/28 00:07:59;;;;;;;22.87;12.80;;;;;;;2.09;83.28;100768.19;4991958;28;20236;-60
2023/12/28 00:10:28;;;;;;;25.77;13.57;;;;;;;2.10;83.13;100759.75;4998452;28;20298;-61
2023/12/28 00:12:56;;;;;;;25.97;13.23;;;;;;;2.09;82.76;100766.50;4993371;28;20678;-55
2023/12/28 00:15:24;;;;;;;26.27;13.60;;;;;;;2.11;83.12;100761.50;4992273;28;20207;-56
2023/12/28 00:17:52;;;;;;;27.23;14.13;;;;;;;2.11;83.44;100753.88;4990794;28;20231;-57
2023/12/28 00:20:20;;;;;;;27.93;12.90;;;;;;;2.12;83.61;100741.19;4987164;28;20290;-52
2023/12/28 00:22:49;;;;;;;29.03;13.13;;;;;;;2.13;83.42;100739.53;4993811;28;20234;-57
2023/12/28 00:25:17;;;;;;;22.93;13.80;;;;;;;2.14;83.62;100738.72;4984984;28;20214;-55
2023/12/28 00:27:46;;;;;;;25.73;13.13;;;;;;;2.11;82.25;100716.59;4990759;28;20223;-55
2023/12/28 00:30:17;;;;;;;33.67;16.50;;;;;;;2.03;83.26;100712.09;4995145;28;20215;-55
2023/12/28 00:32:45;;;;;;;24.77;12.50;;;;;;;1.97;83.00;100701.72;4993154;28;20216;-58
2023/12/28 00:35:14;;;;;;;23.03;12.90;;;;;;;1.91;83.27;100699.81;4986496;28;20669;-54
2023/12/28 00:37:42;;;;;;;23.87;12.30;;;;;;;1.90;83.73;100709.13;5002366;28;20273;-56
2023/12/28 00:40:12;;;;;;;23.83;13.03;;;;;;;1.90;83.79;100715.88;4996190;28;20212;-57
2023/12/28 00:42:40;;;;;;;23.17;12.40;;;;;;;1.90;84.53;100714.19;4994560;28;20200;-60
2023/12/28 00:45:09;;;;;;;23.27;12.57;;;;;;;1.87;84.52;100709.00;4992916;28;20222;-58
2023/12/28 00:47:37;;;;;;;23.03;12.43;;;;;;;1.90;84.38;100719.28;4993243;28;20315;-60
2023/12/28 00:50:06;;;;;;;22.10;11.57;;;;;;;1.94;85.17;100732.94;4991805;28;20203;-57
2023/12/28 00:52:34;;;;;;;24.80;12.63;;;;;;;1.98;84.83;100741.56;4992453;28;20658;-57
2023/12/28 00:55:02;;;;;;;25.53;12.37;;;;;;;2.00;84.74;100747.56;5003189;28;20203;-59
2023/12/28 00:57:32;;;;;;;28.37;13.63;;;;;;;2.03;84.00;100740.06;4997168;28;20736;-59
2023/12/28 01:00:00;;;;;;;22.93;13.33;;;;;;;2.03;83.59;100729.88;4994369;28;20715;-59
2023/12/28 01:02:28;;;;;;;22.77;12.47;;;;;;;2.01;83.25;100726.41;4998604;28;20204;-60
2023/12/28 01:04:56;;;;;;;27.70;13.27;;;;;;;1.99;83.52;100722.94;4994299;28;20216;-58
2023/12/28 01:07:24;;;;;;;28.03;13.83;;;;;;;1.94;83.33;100721.09;4992405;28;20208;-60
2023/12/28 01:09:52;;;;;;;25.13;14.63;;;;;;;1.87;83.83;100714.09;4993058;28;20224;-59
2023/12/28 01:12:20;;;;;;;24.13;12.77;;;;;;;1.85;84.27;100719.94;5001879;28;20207;-60
2023/12/28 01:14:49;;;;;;;24.67;14.00;;;;;;;1.84;84.23;100713.13;4995157;28;20278;-60
2023/12/28 01:17:18;;;;;;;25.10;14.13;;;;;;;1.80;83.66;100717.22;4996564;28;20239;-65
2023/12/28 01:19:46;;;;;;;28.47;14.83;;;;;;;1.79;84.31;100707.88;4983002;28;20288;-60
2023/12/28 01:22:16;;;;;;;25.87;13.60;;;;;;;1.76;84.23;100701.84;4994103;28;20710;-60
2023/12/28 01:24:49;;;;;;;21.93;13.40;;;;;;;1.72;84.03;100688.16;4994574;28;20211;-64
2023/12/28 01:27:17;;;;;;;29.83;13.27;;;;;;;1.72;84.17;100688.16;4992322;28;20200;-59
2023/12/28 01:29:45;;;;;;;22.60;12.23;;;;;;;1.68;83.67;100692.28;4993480;28;20226;-59
2023/12/28 01:32:15;;;;;;;24.23;12.50;;;;;;;1.70;84.48;100684.72;4993637;28;20200;-60
2023/12/28 01:34:44;;;;;;;20.43;11.60;;;;;;;1.68;84.34;100681.25;4993489;28;20263;-64
2023/12/28 01:37:13;;;;;;;22.03;12.40;;;;;;;1.68;84.43;100671.09;4995835;28;20200;-59
2023/12/28 01:39:40;;;;;;;22.13;11.10;;;;;;;1.67;83.55;100666.81;4998315;28;20212;-59
2023/12/28 01:42:08;;;;;;;19.10;10.57;;;;;;;1.63;84.29;100668.41;4997480;28;20200;-60
2023/12/28 01:44:36;;;;;;;16.43;10.67;;;;;;;1.59;83.15;100674.19;4995024;28;20282;-60
2023/12/28 01:47:04;;;;;;;23.60;11.83;;;;;;;1.57;84.42;100657.16;4993953;28;20623;-60
2023/12/28 01:49:36;;;;;;;24.70;11.37;;;;;;;1.55;84.09;100653.72;4992657;28;20248;-59
2023/12/28 01:52:05;;;;;;;21.00;11.63;;;;;;;1.51;84.60;100642.59;5000485;28;20299;-60
2023/12/28 01:54:35;;;;;;;22.90;11.33;;;;;;;1.51;84.26;100647.66;4986971;28;20674;-58
2023/12/28 01:57:05;;;;;;;22.30;11.20;;;;;;;1.52;84.06;100638.38;4989584;28;20339;-59
2023/12/28 01:59:33;;;;;;;23.23;11.40;;;;;;;1.48;84.28;100629.78;4994161;28;20653;-60
2023/12/28 02:02:01;;;;;;;20.93;10.13;;;;;;;1.47;83.88;100620.41;4997513;28;20204;-60
2023/12/28 02:04:29;;;;;;;21.43;10.30;;;;;;;1.49;84.93;100630.63;4990273;28;20207;-59
2023/12/28 02:07:01;;;;;;;20.87;9.77;;;;;;;1.50;84.54;100612.03;4993832;28;20207;-59
2023/12/28 02:09:29;;;;;;;22.40;11.40;;;;;;;1.47;84.84;100599.25;4990902;28;20286;-59
2023/12/28 02:11:57;;;;;;;18.13;10.33;;;;;;;1.44;84.01;100590.72;4992377;28;20208;-59
2023/12/28 02:14:25;;;;;;;24.87;12.03;;;;;;;1.38;84.50;100582.03;4983223;28;20562;-59
2023/12/28 02:17:01;;;;;;;20.23;11.23;;;;;;;1.31;84.16;100567.41;4993209;28;20208;-60
2023/12/28 02:19:33;;;;;;;18.73;10.43;;;;;;;1.19;83.87;100556.00;4996456;28;20203;-59
2023/12/28 02:22:04;;;;;;;20.63;9.83;;;;;;;1.17;84.11;100560.16;4992445;28;20231;-60
2023/12/28 02:24:32;;;;;;;24.40;10.50;;;;;;;1.16;84.58;100562.66;4986284;28;20204;-61
2023/12/28 02:27:01;;;;;;;19.23;10.23;;;;;;;1.15;84.83;100576.16;4998123;28;20269;-59
2023/12/28 02:29:29;;;;;;;21.50;10.13;;;;;;;1.13;84.70;100577.78;4986777;28;20219;-59
2023/12/28 02:32:02;;;;;;;18.67;9.87;;;;;;;1.15;84.98;100573.63;4993662;28;20212;-61
2023/12/28 02:34:38;;;;;;;22.80;9.90;;;;;;;1.18;84.36;100566.13;5000245;28;21232;-60
2023/12/28 02:37:07;;;;;;;21.00;10.30;;;;;;;1.19;84.89;100553.47;4991945;28;20203;-59
2023/12/28 02:39:37;;;;;;;19.90;9.77;;;;;;;1.19;84.79;100553.47;4989998;28;21296;-61
2023/12/28 02:42:06;;;;;;;20.07;10.77;;;;;;;1.22;85.11;100552.72;4989056;28;20208;-59
2023/12/28 02:44:34;;;;;;;19.13;10.23;;;;;;;1.26;85.17;100548.63;4985715;28;20705;-60
2023/12/28 02:47:02;;;;;;;19.60;9.80;;;;;;;1.26;84.25;100538.47;4991409;28;20256;-61
2023/12/28 02:49:30;;;;;;;20.93;9.83;;;;;;;1.26;84.42;100541.00;4992735;28;20297;-58
2023/12/28 02:51:58;;;;;;;19.87;9.10;;;;;;;1.29;84.55;100538.53;4994470;28;20208;-59
2023/12/28 02:54:26;;;;;;;21.03;10.17;;;;;;;1.30;84.38;100538.63;4991129;28;20214;-60
2023/12/28 02:56:54;;;;;;;17.67;8.90;;;;;;;1.32;84.11;100533.56;4988545;28;20208;-59
2023/12/28 02:59:24;;;;;;;19.90;9.33;;;;;;;1.35;84.13;100538.75;4989600;28;20296;-61
2023/12/28 03:01:52;;;;;;;17.10;9.50;;;;;;;1.35;84.38;100526.06;4994905;28;20235;-60
2023/12/28 03:04:20;;;;;;;17.93;9.33;;;;;;;1.37;84.41;100517.69;4992444;28;20204;-61
2023/12/28 03:06:48;;;;;;;15.63;8.80;;;;;;;1.37;84.11;100502.47;4992949;28;20214;-60
2023/12/28 03:09:16;;;;;;;16.17;8.47;;;;;;;1.39;83.30;100498.28;4994170;28;20251;-60
2023/12/28 03:11:44;;;;;;;16.10;8.40;;;;;;;1.38;83.23;100486.41;4990116;28;20310;-61
2023/12/28 03:14:13;;;;;;;20.23;8.23;;;;;;;1.36;82.71;100490.59;4992248;28;20200;-60
2023/12/28 03:16:42;;;;;;;18.67;8.50;;;;;;;1.35;83.03;100488.00;4992756;28;20208;-60
2023/12/28 03:19:10;;;;;;;19.93;8.70;;;;;;;1.33;83.93;100487.94;4991716;28;20200;-60
2023/12/28 03:21:40;;;;;;;14.60;8.07;;;;;;;1.33;84.01;100484.56;4992801;28;20245;-57
2023/12/28 03:24:08;;;;;;;15.50;8.07;;;;;;;1.35;82.91;100486.31;4990214;28;20586;-58
2023/12/28 03:26:39;;;;;;;15.67;7.57;;;;;;;1.36;82.94;100475.38;4996262;28;20219;-55
2023/12/28 03:29:08;;;;;;;12.43;7.40;;;;;;;1.41;83.13;100478.91;4999965;28;20247;-54
2023/12/28 03:31:40;;;;;;;13.90;7.40;;;;;;;1.41;82.48;100471.28;4996425;28;20215;-55
2023/12/28 03:34:09;;;;;;;16.80;7.70;;;;;;;1.44;83.50;100463.78;5007063;28;20618;-56
2023/12/28 03:36:38;;;;;;;16.83;7.90;;;;;;;1.47;82.76;100468.06;5005710;28;20274;-54
2023/12/28 03:39:06;;;;;;;11.70;6.50;;;;;;;1.48;82.43;100459.66;4990911;28;20233;-57
2023/12/28 03:41:34;;;;;;;13.30;7.20;;;;;;;1.52;82.74;100446.22;4993114;28;20673;-57
2023/12/28 03:44:02;;;;;;;13.70;7.07;;;;;;;1.55;82.03;100446.34;4991763;28;20204;-57
2023/12/28 03:46:30;;;;;;;17.77;7.87;;;;;;;1.55;81.88;100451.41;4991722;28;20214;-58
2023/12/28 03:48:57;;;;;;;12.80;7.60;;;;;;;1.57;80.94;100448.91;4998810;28;20216;-55
2023/12/28 03:51:27;;;;;;;15.13;7.23;;;;;;;1.60;80.74;100441.41;4996433;28;20270;-57
2023/12/28 03:53:55;;;;;;;14.77;7.67;;;;;;;1.58;80.45;100435.38;4990146;28;20215;-57
2023/12/28 03:56:23;;;;;;;18.63;7.40;;;;;;;1.57;80.94;100436.22;4991599;28;20244;-55
2023/12/28 03:58:52;;;;;;;12.93;7.27;;;;;;;1.57;80.99;100438.75;4990932;28;20210;-54
2023/12/28 04:01:21;;;;;;;13.17;6.57;;;;;;;1.59;80.20;100425.28;4991754;28;20266;-56
2023/12/28 04:03:49;;;;;;;14.23;7.57;;;;;;;1.60;80.31;100419.41;4995866;28;20249;-57
2023/12/28 04:06:17;;;;;;;15.00;7.10;;;;;;;1.61;79.75;100421.09;4998126;28;20192;-57
2023/12/28 04:08:47;;;;;;;14.20;8.00;;;;;;;1.62;79.40;100415.25;4998697;28;20203;-59
2023/12/28 04:11:14;;;;;;;13.53;7.27;;;;;;;1.63;80.17;100416.94;4996089;28;20322;-56
2023/12/28 04:13:42;;;;;;;15.03;7.70;;;;;;;1.66;79.32;100413.66;5001791;28;20211;-57
2023/12/28 04:16:13;;;;;;;14.60;7.20;;;;;;;1.66;79.12;100403.50;4994398;28;20204;-55
2023/12/28 04:18:42;;;;;;;14.10;7.00;;;;;;;1.66;78.66;100400.94;4998064;28;20207;-54
2023/12/28 04:21:10;;;;;;;14.57;7.40;;;;;;;1.67;77.97;100398.44;4997246;28;20656;-56
2023/12/28 04:23:39;;;;;;;14.00;6.93;;;;;;;1.66;78.24;100401.81;5000066;28;20703;-55
2023/12/28 04:26:09;;;;;;;12.67;6.73;;;;;;;1.70;78.47;100395.16;5010064;28;20220;-55
2023/12/28 04:28:36;;;;;;;12.80;7.50;;;;;;;1.71;78.11;100396.84;5003864;28;20207;-56
2023/12/28 04:31:05;;;;;;;14.63;6.87;;;;;;;1.73;77.67;100389.28;4996758;28;20220;-55
2023/12/28 04:33:33;;;;;;;14.57;6.63;;;;;;;1.75;77.19;100380.88;5000006;28;20555;-57
2023/12/28 04:36:05;;;;;;;12.77;6.83;;;;;;;1.79;77.09;100379.31;4999884;28;20207;-55
2023/12/28 04:38:33;;;;;;;13.70;6.77;;;;;;;1.81;76.10;100357.34;4997734;28;20243;-55
2023/12/28 04:41:01;;;;;;;13.77;6.87;;;;;;;1.82;75.74;100364.16;4999509;28;20298;-57
2023/12/28 04:43:31;;;;;;;11.83;6.23;;;;;;;1.83;76.00;100351.47;5000043;28;20655;-58
2023/12/28 04:46:03;;;;;;;12.20;6.67;;;;;;;1.84;76.40;100358.31;5005682;28;20685;-55
2023/12/28 04:48:31;;;;;;;10.47;6.60;;;;;;;1.85;75.94;100354.94;4996741;28;20204;-57
2023/12/28 04:51:02;;;;;;;16.53;7.43;;;;;;;1.87;75.92;100345.66;4997034;28;20235;-57
2023/12/28 04:53:30;;;;;;;13.53;6.53;;;;;;;1.89;75.83;100343.19;4998202;28;20277;-56
2023/12/28 04:55:58;;;;;;;13.20;6.80;;;;;;;1.89;75.56;100331.34;4995776;28;20203;-56
2023/12/28 04:58:26;;;;;;;12.57;7.13;;;;;;;1.91;75.64;100326.28;4998724;28;20294;-56
2023/12/28 05:00:55;;;;;;;9.50;5.63;;;;;;;1.91;75.78;100319.56;5009733;28;20287;-57
2023/12/28 05:03:24;;;;;;;12.50;6.37;;;;;;;1.92;74.63;100312.78;4997393;28;20219;-56
2023/12/28 05:05:51;;;;;;;13.47;6.40;;;;;;;1.93;75.24;100302.66;4997544;28;20303;-55
2023/12/28 05:08:19;;;;;;;13.70;6.80;;;;;;;1.96;74.67;100306.97;4998887;28;20621;-54
2023/12/28 05:10:47;;;;;;;16.03;7.23;;;;;;;1.98;74.50;100304.44;5003893;28;20211;-62
2023/12/28 05:13:15;;;;;;;12.30;6.57;;;;;;;1.99;74.09;100311.25;4999832;28;20195;-57
2023/12/28 05:15:43;;;;;;;11.33;5.97;;;;;;;1.98;74.20;100287.53;4996921;28;20243;-55
2023/12/28 05:18:12;;;;;;;13.30;6.77;;;;;;;2.00;73.79;100287.59;4995022;28;20208;-58
2023/12/28 05:20:40;;;;;;;13.77;6.57;;;;;;;2.02;74.50;100293.53;4992376;28;21132;-58
2023/12/28 05:23:08;;;;;;;17.37;6.70;;;;;;;2.00;73.96;100283.34;4992691;28;20270;-56
2023/12/28 05:25:36;;;;;;;15.43;6.47;;;;;;;2.02;74.48;100280.84;5001789;28;20215;-57
2023/12/28 05:28:04;;;;;;;11.17;6.97;;;;;;;2.01;73.52;100271.50;4995614;28;20204;-57
2023/12/28 05:30:32;;;;;;;12.93;6.70;;;;;;;2.00;73.66;100264.72;5001977;28;20219;-56
2023/12/28 05:33:00;;;;;;;15.57;6.80;;;;;;;2.00;74.51;100241.84;4987869;28;20615;-56
2023/12/28 05:35:30;;;;;;;14.30;6.67;;;;;;;2.00;74.58;100252.00;4995597;28;20262;-56
2023/12/28 05:37:58;;;;;;;12.17;6.97;;;;;;;2.00;74.00;100226.59;4996956;28;20236;-56
2023/12/28 05:40:26;;;;;;;11.97;7.33;;;;;;;2.00;74.33;100222.38;4995997;28;20678;-56
2023/12/28 05:42:54;;;;;;;11.00;6.03;;;;;;;2.01;74.96;100216.44;4991805;28;20208;-57
2023/12/28 05:45:22;;;;;;;17.93;7.00;;;;;;;1.99;74.61;100207.94;4992028;28;20630;-56
2023/12/28 05:47:50;;;;;;;12.57;6.50;;;;;;;1.98;73.58;100205.34;4996473;28;20672;-55
2023/12/28 05:50:18;;;;;;;13.77;6.60;;;;;;;1.96;74.54;100200.25;4992173;28;20212;-56
2023/12/28 05:52:47;;;;;;;13.97;6.70;;;;;;;1.97;74.02;100211.25;4991397;28;20605;-56
2023/12/28 05:55:15;;;;;;;14.37;6.20;;;;;;;1.96;74.09;100189.22;4992393;28;20605;-54
2023/12/28 05:57:43;;;;;;;13.93;7.53;;;;;;;1.96;74.77;100219.72;4992183;28;20228;-55
2023/12/28 06:00:12;;;;;;;15.07;7.60;;;;;;;1.96;73.98;100207.00;4995247;28;20204;-55
2023/12/28 06:02:40;;;;;;;15.53;7.47;;;;;;;1.92;74.49;100223.84;4986438;28;20200;-56
2023/12/28 06:05:08;;;;;;;11.70;6.47;;;;;;;1.87;75.00;100220.31;4992764;28;20675;-57
2023/12/28 06:07:36;;;;;;;16.70;6.93;;;;;;;1.87;74.68;100216.09;4990760;28;20204;-58
2023/12/28 06:10:07;;;;;;;13.47;7.33;;;;;;;1.86;75.19;100206.75;4993524;28;20212;-54
2023/12/28 06:12:35;;;;;;;12.47;6.70;;;;;;;1.86;75.31;100209.28;4994155;28;20220;-56
2023/12/28 06:15:04;;;;;;;11.60;7.00;;;;;;;1.83;74.88;100211.75;4993043;28;20200;-57
2023/12/28 06:17:31;;;;;;;13.00;7.40;;;;;;;1.82;75.63;100207.50;4982862;28;20209;-56
2023/12/28 06:20:02;;;;;;;17.87;7.47;;;;;;;1.82;74.98;100221.88;4991370;28;20212;-55
2023/12/28 06:22:30;;;;;;;16.13;6.80;;;;;;;1.82;75.43;100224.44;4994121;28;20257;-54
2023/12/28 06:24:58;;;;;;;12.83;7.03;;;;;;;1.82;74.78;100229.50;4993876;28;20215;-55
2023/12/28 06:27:27;;;;;;;13.43;6.70;;;;;;;1.81;74.72;100237.97;4988509;28;20219;-54
2023/12/28 06:29:55;;;;;;;12.00;6.50;;;;;;;1.79;75.21;100226.88;4983454;28;20262;-54
2023/12/28 06:32:23;;;;;;;15.50;7.03;;;;;;;1.75;75.34;100225.09;4987299;28;20305;-60
2023/12/28 06:34:52;;;;;;;14.07;7.17;;;;;;;1.76;75.09;100222.56;4993882;28;20562;-60
2023/12/28 06:37:20;;;;;;;14.20;7.77;;;;;;;1.77;76.38;100224.31;4992262;28;20651;-62
2023/12/28 06:39:48;;;;;;;12.77;7.00;;;;;;;1.76;76.19;100217.50;4993069;28;20210;-57
2023/12/28 06:42:16;;;;;;;15.90;7.03;;;;;;;1.76;75.76;100227.66;4993368;28;20215;-58
2023/12/28 06:44:46;;;;;;;15.93;7.53;;;;;;;1.75;75.74;100205.63;4986574;28;20710;-57
2023/12/28 06:47:14;;;;;;;15.17;7.37;;;;;;;1.74;76.31;100196.28;4995029;28;20199;-57
2023/12/28 06:49:41;;;;;;;12.23;6.67;;;;;;;1.73;76.55;100197.13;4995301;28;20199;-57
2023/12/28 06:52:10;;;;;;;14.07;7.53;;;;;;;1.74;75.87;100206.44;4980302;28;20770;-58
2023/12/28 06:54:38;;;;;;;13.77;7.43;;;;;;;1.77;76.18;100204.00;4982243;28;20708;-55
2023/12/28 06:57:06;;;;;;;12.03;6.53;;;;;;;1.80;76.58;100193.88;4985601;28;20259;-56
2023/12/28 06:59:34;;;;;;;15.10;7.17;;;;;;;1.83;76.63;100188.88;4989797;28;20732;-57
2023/12/28 07:02:04;;;;;;;16.50;7.70;;;;;;;1.86;76.19;100186.44;4988558;28;20687;-55
2023/12/28 07:04:32;;;;;;;18.23;7.40;;;;;;;1.88;76.90;100192.44;4990527;28;20215;-57
2023/12/28 07:07:00;;;;;;;14.70;6.90;;;;;;;1.91;76.87;100186.53;4991226;28;20207;-53
2023/12/28 07:09:28;;;;;;;20.90;9.40;;;;;;;1.92;76.79;100178.13;4990450;28;20215;-57
2023/12/28 07:11:56;;;;;;;15.93;7.30;;;;;;;1.92;77.02;100181.53;4990650;28;20314;-54
2023/12/28 07:14:24;;;;;;;13.27;7.03;;;;;;;1.96;76.74;100173.97;4990112;28;20216;-52
2023/12/28 07:16:52;;;;;;;14.20;7.40;;;;;;;1.99;76.94;100163.88;4990571;28;20210;-55
2023/12/28 07:19:22;;;;;;;14.40;7.80;;;;;;;2.03;77.57;100170.78;4987008;28;20207;-56
2023/12/28 07:21:50;;;;;;;14.63;7.50;;;;;;;2.02;77.42;100174.97;4996034;28;20235;-55
2023/12/28 07:24:18;;;;;;;10.47;6.77;;;;;;;2.05;76.45;100167.41;4988075;28;20215;-55
2023/12/28 07:26:46;;;;;;;16.90;8.10;;;;;;;2.08;76.53;100161.56;4985388;28;20217;-56
2023/12/28 07:29:13;;;;;;;15.77;8.83;;;;;;;2.11;77.61;100166.72;4991735;28;20560;-57
2023/12/28 07:31:41;;;;;;;15.13;8.53;;;;;;;2.14;77.12;100164.28;4986680;28;20271;-55
2023/12/28 07:34:09;;;;;;;18.67;9.57;;;;;;;2.16;77.18;100160.06;4985666;28;20204;-56
2023/12/28 07:36:42;;;;;;;16.93;9.23;;;;;;;2.18;77.33;100161.81;4994649;28;20670;-55
2023/12/28 07:39:11;;;;;;;19.00;9.80;;;;;;;2.20;76.95;100159.31;5002853;28;20212;-57
2023/12/28 07:41:39;;;;;;;16.53;9.77;;;;;;;2.26;76.88;100169.63;4993205;28;20204;-56
2023/12/28 07:44:07;;;;;;;16.03;9.80;;;;;;;2.28;76.96;100160.34;4990265;28;20286;-58
2023/12/28 07:46:35;;;;;;;16.23;9.40;;;;;;;2.33;77.18;100156.25;4989397;28;20613;-54
2023/12/28 07:49:03;;;;;;;14.10;9.13;;;;;;;2.37;77.09;100142.78;4991363;28;20209;-54
2023/12/28 07:51:31;;;;;;;20.63;9.57;;;;;;;2.41;76.79;100144.56;4991491;28;20679;-55
2023/12/28 07:54:00;;;;;;;14.93;8.23;;;;;;;2.47;76.49;100153.13;4991077;28;20215;-56
2023/12/28 07:56:28;;;;;;;16.57;8.53;;;;;;;2.51;76.56;100154.97;4992422;28;20600;-59
2023/12/28 07:58:56;;;;;;;15.93;8.13;;;;;;;2.54;76.11;100167.72;4984246;28;20203;-60
2023/12/28 08:01:25;;;;;;;16.93;8.30;;;;;;;2.58;76.37;100162.75;4985345;28;20208;-57
2023/12/28 08:03:53;;;;;;;16.70;8.90;;;;;;;2.59;77.32;100164.47;4991515;28;20242;-54
2023/12/28 08:06:21;;;;;;;16.10;8.67;;;;;;;2.63;76.32;100178.97;4992092;28;20722;-57
2023/12/28 08:08:49;;;;;;;17.33;8.10;;;;;;;2.66;76.38;100190.91;4991726;28;20206;-57
2023/12/28 08:11:18;;;;;;;14.27;8.73;;;;;;;2.67;77.20;100192.63;4991720;28;20219;-58
2023/12/28 08:13:46;;;;;;;14.40;8.30;;;;;;;2.71;76.78;100185.91;4992251;28;20659;-55
2023/12/28 08:16:14;;;;;;;17.13;8.23;;;;;;;2.72;77.44;100185.94;4993152;28;20203;-57
2023/12/28 08:18:42;;;;;;;14.17;7.97;;;;;;;2.78;77.36;100180.13;4997142;28;20240;-61
2023/12/28 08:21:11;;;;;;;14.43;8.23;;;;;;;2.84;77.55;100170.09;4997722;28;20242;-59
2023/12/28 08:23:38;;;;;;;16.10;7.90;;;;;;;2.87;76.93;100160.84;4991766;28;20254;-59
2023/12/28 08:26:07;;;;;;;13.53;8.20;;;;;;;2.96;77.34;100156.78;5000804;28;20254;-60
2023/12/28 08:28:37;;;;;;;13.60;7.93;;;;;;;3.01;77.35;100134.81;4995105;28;20243;-59
2023/12/28 08:31:07;;;;;;;15.37;8.40;;;;;;;3.10;76.91;100151.16;4989708;28;20596;-60
2023/12/28 08:33:38;;;;;;;17.07;8.00;;;;;;;3.17;76.85;100134.31;4991067;28;20224;-58
2023/12/28 08:36:08;;;;;;;18.17;8.00;;;;;;;3.24;77.12;100131.06;4998179;28;20608;-57
2023/12/28 08:38:36;;;;;;;13.90;8.17;;;;;;;3.32;76.38;100132.06;5001125;28;20203;-57
2023/12/28 08:41:08;;;;;;;14.77;8.43;;;;;;;3.42;76.28;100135.63;4993786;28;20254;-58
2023/12/28 08:43:38;;;;;;;14.90;8.07;;;;;;;3.50;76.00;100136.63;4995109;28;20569;-59
2023/12/28 08:46:08;;;;;;;17.97;7.87;;;;;;;3.58;75.94;100146.97;4994800;28;20211;-54
2023/12/28 08:48:36;;;;;;;17.80;9.00;;;;;;;3.66;75.68;100145.41;4993450;28;20208;-54
2023/12/28 08:51:05;;;;;;;15.80;8.93;;;;;;;3.73;75.76;100133.63;4995421;28;20219;-57
2023/12/28 08:53:33;;;;;;;14.70;8.50;;;;;;;3.80;75.33;100135.47;4995180;28;20216;-59
2023/12/28 08:56:01;;;;;;;16.03;8.10;;;;;;;3.87;74.66;100142.38;4995496;28;20574;-55
2023/12/28 08:58:28;;;;;;;14.70;8.20;;;;;;;3.96;75.05;100139.13;4994879;28;20211;-56
2023/12/28 09:00:58;;;;;;;18.03;8.43;;;;;;;4.05;74.81;100139.25;4989614;28;20610;-61
2023/12/28 09:03:26;;;;;;;16.47;7.53;;;;;;;4.12;74.30;100123.22;4994549;28;20208;-61
2023/12/28 09:05:54;;;;;;;16.27;7.37;;;;;;;4.19;74.35;100122.50;4994578;28;20211;-61
2023/12/28 09:08:22;;;;;;;19.70;8.30;;;;;;;4.28;74.22;100122.66;4994699;28;20208;-61
2023/12/28 09:10:50;;;;;;;12.93;7.37;;;;;;;4.36;74.07;100115.09;4994809;28;20756;-62
2023/12/28 09:13:18;;;;;;;19.03;7.33;;;;;;;4.47;73.48;100122.91;4994550;28;20227;-62
2023/12/28 09:15:46;;;;;;;13.73;8.03;;;;;;;4.56;73.15;100117.94;4994478;28;20200;-62
2023/12/28 09:18:15;;;;;;;20.57;7.73;;;;;;;4.68;72.73;100122.38;4993112;28;20319;-57
2023/12/28 09:20:44;;;;;;;11.83;7.33;;;;;;;4.78;72.44;100121.63;4994338;28;20214;-58
2023/12/28 09:23:11;;;;;;;12.47;6.93;;;;;;;4.87;71.82;100116.66;4994258;28;20318;-58
2023/12/28 09:25:41;;;;;;;12.13;7.43;;;;;;;5.00;70.96;100104.88;4994606;28;20298;-58
2023/12/28 09:28:09;;;;;;;10.93;7.30;;;;;;;5.12;70.91;100112.72;4994478;28;20212;-57
2023/12/28 09:30:37;;;;;;;11.30;7.07;;;;;;;5.21;70.78;100105.13;4994259;28;20200;-60
2023/12/28 09:33:05;;;;;;;12.73;6.97;;;;;;;5.28;69.43;100106.91;4994540;28;20220;-62
2023/12/28 09:35:35;;;;;;;12.27;7.30;;;;;;;5.39;69.87;100113.84;4991965;28;20239;-58
2023/12/28 09:38:04;;;;;;;11.60;6.03;;;;;;;5.48;68.95;100101.16;4994199;28;20242;-60
2023/12/28 09:40:32;;;;;;;11.30;6.30;;;;;;;5.59;67.88;100102.09;4994453;28;20690;-57
2023/12/28 09:43:10;;;;;;;9.47;6.10;;;;;;;5.71;67.85;100096.28;4992824;28;20710;-57
2023/12/28 09:45:38;;;;;;;9.63;5.33;;;;;;;5.87;67.59;100094.69;4993961;28;20235;-58
2023/12/28 09:48:07;;;;;;;8.67;5.60;;;;;;;6.00;67.96;100104.19;4994479;28;20678;-57
2023/12/28 09:50:37;;;;;;;7.70;4.97;;;;;;;6.10;67.57;100111.09;4994086;28;20219;-57
2023/12/28 09:53:05;;;;;;;7.33;4.93;;;;;;;6.16;68.83;100116.28;4993905;28;20216;-62
2023/12/28 09:55:32;;;;;;;7.70;4.93;;;;;;;6.22;68.07;100111.22;4993756;28;20200;-57
2023/12/28 09:58:02;;;;;;;8.90;4.80;;;;;;;6.26;69.55;100099.31;4993885;28;20222;-58
2023/12/28 10:00:31;;;;;;;7.77;4.90;;;;;;;6.28;69.35;100115.50;4992444;28;20210;-59
2023/12/28 10:02:59;;;;;;;6.10;4.77;;;;;;;6.32;68.88;100111.25;4991048;28;20208;-57
2023/12/28 10:05:27;;;;;;;8.73;4.90;;;;;;;6.35;69.08;100119.81;4993973;28;20200;-58
2023/12/28 10:07:57;;;;;;;9.67;5.47;;;;;;;6.38;68.56;100111.31;4988532;28;20577;-58
2023/12/28 10:10:25;;;;;;;9.77;5.43;;;;;;;6.39;68.13;100116.44;4992127;28;20204;-57
2023/12/28 10:12:53;;;;;;;11.77;5.63;;;;;;;6.38;68.38;100112.16;4993764;28;20220;-57
2023/12/28 10:15:21;;;;;;;8.50;5.10;;;;;;;6.39;68.60;100125.81;4993582;28;20212;-57
2023/12/28 10:17:49;;;;;;;9.03;5.43;;;;;;;6.37;68.08;100109.56;4993762;28;20635;-57
2023/12/28 10:20:18;;;;;;;10.10;5.90;;;;;;;6.38;68.44;100101.06;4993371;28;20222;-58
2023/12/28 10:22:46;;;;;;;10.87;5.27;;;;;;;6.38;68.59;100106.19;4993248;28;20232;-57
2023/12/28 10:25:15;;;;;;;7.37;5.23;;;;;;;6.37;68.07;100099.34;4993654;28;20247;-57
2023/12/28 10:27:43;;;;;;;8.63;5.97;;;;;;;6.37;67.66;100110.47;4991914;28;20235;-58
2023/12/28 10:30:12;;;;;;;7.90;5.60;;;;;;;6.38;67.70;100106.19;4991064;28;20258;-58
2023/12/28 10:32:42;;;;;;;9.67;6.13;;;;;;;6.38;68.42;100095.97;4993182;28;20200;-57
2023/12/28 10:35:10;;;;;;;9.77;6.30;;;;;;;6.39;68.23;100107.91;4992172;28;20621;-58
2023/12/28 10:37:41;;;;;;;8.27;6.03;;;;;;;6.40;67.95;100105.34;4991976;28;20208;-57
2023/12/28 10:40:15;;;;;;;11.27;6.03;;;;;;;6.42;68.60;100100.25;4992483;28;20218;-56
2023/12/28 10:42:52;;;;;;;8.20;5.30;;;;;;;6.43;68.93;100090.00;4993400;28;20582;-60
2023/12/28 10:45:24;;;;;;;7.97;5.57;;;;;;;6.46;69.03;100086.63;4991383;28;20204;-62
2023/12/28 10:47:59;;;;;;;8.53;5.10;;;;;;;6.48;69.49;100088.34;4992732;28;20232;-59
2023/12/28 10:50:29;;;;;;;8.17;4.83;;;;;;;6.48;69.95;100080.66;4992682;28;20298;-57
2023/12/28 10:53:05;;;;;;;10.50;5.03;;;;;;;6.50;70.88;100096.03;4992982;28;20231;-59
2023/12/28 10:55:45;;;;;;;7.60;4.90;;;;;;;6.49;71.18;100095.16;4993239;28;20707;-58
2023/12/28 10:58:19;;;;;;;8.07;5.40;;;;;;;6.47;70.97;100101.97;4986680;28;20576;-60
2023/12/28 11:01:03;;;;;;;8.83;5.47;;;;;;;6.47;71.29;100101.13;4992803;28;20203;-58
2023/12/28 11:03:36;;;;;;;9.20;5.70;;;;;;;6.42;72.33;100108.78;4993068;28;20726;-54
2023/12/28 11:06:06;;;;;;;8.10;5.50;;;;;;;6.40;72.78;100124.97;4993232;28;20549;-53
2023/12/28 11:08:36;;;;;;;8.67;5.93;;;;;;;6.35;73.60;100107.03;4993005;28;20202;-56
2023/12/28 11:11:08;;;;;;;9.47;5.77;;;;;;;6.32;74.91;100121.50;4992556;28;20204;-58
2023/12/28 11:13:37;;;;;;;6.97;5.23;;;;;;;6.28;76.87;100111.25;4986640;28;20233;-59
2023/12/28 11:16:06;;;;;;;8.80;5.07;;;;;;;6.23;78.21;100107.81;4992828;28;20203;-61
2023/12/28 11:18:35;;;;;;;8.67;5.20;;;;;;;6.14;79.25;100102.59;4991779;28;20579;-63
2023/12/28 11:21:04;;;;;;;8.83;5.07;;;;;;;6.10;79.32;100111.09;4992544;28;20277;-64
2023/12/28 11:23:34;;;;;;;8.70;5.80;;;;;;;6.06;80.11;100109.38;4992394;28;20203;-61
2023/12/28 11:26:02;;;;;;;8.60;5.37;;;;;;;6.03;79.97;100111.91;4992469;28;20288;-57
2023/12/28 11:28:31;;;;;;;8.40;5.50;;;;;;;6.00;80.61;100107.63;4992561;28;20675;-60
2023/12/28 11:30:59;;;;;;;10.73;5.80;;;;;;;6.01;81.16;100111.03;4992469;28;20647;-58